createdAt,value
2023-04-17T00:01:30.549Z,20.48
2023-04-17T00:03:57.908Z,21.95
2023-04-17T00:06:24.642Z,19.23
2023-04-17T00:08:51.076Z,17.58
2023-04-17T00:11:18.737Z,20.90
2023-04-17T00:13:45.659Z,22.73
2023-04-17T00:16:13.531Z,19.63
2023-04-17T00:18:40.336Z,17.83
2023-04-17T00:21:06.714Z,19.67
2023-04-17T00:23:33.066Z,20.10
2023-04-17T00:25:59.438Z,19.60
2023-04-17T00:28:25.875Z,21.27
2023-04-17T00:30:52.285Z,23.88
2023-04-17T00:33:18.721Z,18.38
2023-04-17T00:35:45.167Z,21.58
2023-04-17T00:38:11.553Z,27.00
2023-04-17T00:40:37.916Z,24.80
2023-04-17T00:43:04.649Z,25.05
2023-04-17T00:45:31.204Z,23.90
2023-04-17T00:47:58.923Z,22.27
2023-04-17T00:50:30.060Z,21.65
2023-04-17T00:52:57.080Z,24.10
2023-04-17T00:55:23.675Z,23.45
2023-04-17T00:57:50.543Z,24.65
2023-04-17T01:00:18.111Z,21.70
2023-04-17T01:02:45.571Z,21.95
2023-04-17T01:05:12.202Z,21.02
2023-04-17T01:07:39.377Z,21.38
2023-04-17T01:10:06.458Z,23.77
2023-04-17T01:12:32.855Z,20.17
2023-04-17T01:14:59.357Z,21.42
2023-04-17T01:17:29.115Z,20.27
2023-04-17T01:19:55.654Z,21.70
2023-04-17T01:22:22.124Z,21.23
2023-04-17T01:24:49.016Z,20.40
2023-04-17T01:27:15.495Z,20.13
2023-04-17T01:29:45.406Z,18.88
2023-04-17T01:32:11.972Z,19.20
2023-04-17T01:34:38.553Z,20.23
2023-04-17T01:37:05.317Z,15.30
2023-04-17T01:39:31.849Z,16.20
2023-04-17T01:41:58.313Z,14.63
2023-04-17T01:44:24.788Z,20.48
2023-04-17T01:46:51.438Z,16.33
2023-04-17T01:49:17.851Z,18.80
2023-04-17T01:51:44.323Z,21.38
2023-04-17T01:54:10.930Z,20.20
2023-04-17T01:56:37.510Z,19.65
2023-04-17T01:59:03.922Z,18.88
2023-04-17T02:01:30.936Z,19.38
2023-04-17T02:03:57.511Z,17.90
2023-04-17T02:06:24.048Z,18.73
2023-04-17T02:08:50.376Z,17.80
2023-04-17T02:11:17.286Z,19.73
2023-04-17T02:13:43.660Z,17.98
2023-04-17T02:16:12.358Z,18.60
2023-04-17T02:18:40.112Z,19.65
2023-04-17T02:21:06.668Z,21.65
2023-04-17T02:23:33.010Z,18.75
2023-04-17T02:25:59.411Z,23.75
2023-04-17T02:28:25.810Z,26.20
2023-04-17T02:30:52.236Z,21.63
2023-04-17T02:33:18.594Z,20.55
2023-04-17T02:35:45.533Z,24.25
2023-04-17T02:38:11.949Z,21.90
2023-04-17T02:40:38.840Z,21.20
2023-04-17T02:43:05.189Z,19.80
2023-04-17T02:45:31.900Z,26.45
2023-04-17T02:47:58.448Z,23.00
2023-04-17T02:50:24.943Z,25.02
2023-04-17T02:52:51.305Z,20.13
2023-04-17T02:55:17.863Z,23.45
2023-04-17T02:57:44.212Z,24.15
2023-04-17T03:00:14.006Z,26.05
2023-04-17T03:02:41.225Z,23.73
2023-04-17T03:05:08.109Z,23.88
2023-04-17T03:07:34.478Z,24.92
2023-04-17T03:10:00.801Z,21.17
2023-04-17T03:12:27.201Z,22.98
2023-04-17T03:14:53.561Z,24.83
2023-04-17T03:17:20.773Z,23.63
2023-04-17T03:19:47.239Z,22.50
2023-04-17T03:22:13.630Z,25.23
2023-04-17T03:24:41.142Z,22.95
2023-04-17T03:27:07.767Z,26.38
2023-04-17T03:29:34.168Z,24.75
2023-04-17T03:32:00.701Z,26.77
2023-04-17T03:34:28.201Z,25.60
2023-04-17T03:36:54.705Z,25.92
2023-04-17T03:39:21.393Z,27.60
2023-04-17T03:41:47.906Z,25.75
2023-04-17T03:44:14.324Z,28.10
2023-04-17T03:46:40.714Z,25.52
2023-04-17T03:49:07.110Z,25.23
2023-04-17T03:51:33.490Z,25.02
2023-04-17T03:53:59.881Z,24.60
2023-04-17T03:56:27.086Z,26.80
2023-04-17T03:58:53.484Z,24.88
2023-04-17T04:01:19.986Z,24.73
2023-04-17T04:03:46.757Z,24.38
2023-04-17T04:06:13.243Z,20.48
2023-04-17T04:08:40.399Z,28.30
2023-04-17T04:11:06.744Z,26.40
2023-04-17T04:13:33.818Z,25.88
2023-04-17T04:16:00.635Z,25.92
2023-04-17T04:18:27.151Z,25.70
2023-04-17T04:20:53.550Z,24.73
2023-04-17T04:23:21.011Z,26.70
2023-04-17T04:25:49.470Z,29.98
2023-04-17T04:28:17.657Z,25.88
2023-04-17T04:30:50.288Z,29.92
2023-04-17T04:33:20.419Z,28.25
2023-04-17T04:35:47.740Z,26.85
2023-04-17T04:38:15.223Z,33.03
2023-04-17T04:40:43.865Z,26.73
2023-04-17T04:43:10.516Z,26.08
2023-04-17T04:45:37.099Z,23.58
2023-04-17T04:48:03.640Z,22.80
2023-04-17T04:50:30.844Z,22.77
2023-04-17T04:52:57.250Z,25.50
2023-04-17T04:55:24.254Z,24.85
2023-04-17T04:57:53.346Z,23.73
2023-04-17T05:00:20.268Z,26.48
2023-04-17T05:02:46.847Z,25.05
2023-04-17T05:05:13.430Z,23.05
2023-04-17T05:07:39.824Z,27.73
2023-04-17T05:10:06.780Z,22.17
2023-04-17T05:12:34.899Z,26.02
2023-04-17T05:15:01.385Z,27.65
2023-04-17T05:17:27.766Z,28.55
2023-04-17T05:19:54.171Z,27.23
2023-04-17T05:22:21.487Z,30.27
2023-04-17T05:24:47.892Z,28.30
2023-04-17T05:27:14.283Z,28.15
2023-04-17T05:29:40.629Z,28.67
2023-04-17T05:32:08.158Z,25.70
2023-04-17T05:34:34.764Z,27.48
2023-04-17T05:37:01.368Z,29.50
2023-04-17T05:39:27.741Z,27.92
2023-04-17T05:41:54.085Z,26.17
2023-04-17T05:44:20.704Z,26.63
2023-04-17T05:46:47.141Z,27.20
2023-04-17T05:49:13.705Z,25.52
2023-04-17T05:51:40.234Z,23.95
2023-04-17T05:54:06.659Z,22.83
2023-04-17T05:56:32.991Z,26.65
2023-04-17T05:58:59.337Z,22.98
2023-04-17T06:01:26.242Z,22.65
2023-04-17T06:03:52.964Z,23.10
2023-04-17T06:06:19.632Z,23.20
2023-04-17T06:08:46.166Z,25.70
2023-04-17T06:11:12.546Z,25.20
2023-04-17T06:13:38.916Z,21.98
2023-04-17T06:16:05.539Z,20.40
2023-04-17T06:18:31.868Z,22.08
2023-04-17T06:20:58.335Z,22.50
2023-04-17T06:23:24.896Z,21.98
2023-04-17T06:25:51.269Z,20.80
2023-04-17T06:28:17.841Z,20.65
2023-04-17T06:30:44.211Z,21.95
2023-04-17T06:33:10.624Z,25.65
2023-04-17T06:35:37.625Z,25.35
2023-04-17T06:38:04.308Z,23.50
2023-04-17T06:40:30.730Z,22.35
2023-04-17T06:42:57.087Z,22.35
2023-04-17T06:45:23.493Z,19.73
2023-04-17T06:47:50.009Z,18.52
2023-04-17T06:50:16.862Z,21.45
2023-04-17T06:52:43.309Z,20.65
2023-04-17T06:55:10.330Z,17.05
2023-04-17T06:57:36.757Z,21.52
2023-04-17T07:00:03.968Z,17.00
2023-04-17T07:02:30.632Z,18.92
2023-04-17T07:04:57.409Z,18.02
2023-04-17T07:07:25.432Z,18.90
2023-04-17T07:09:51.914Z,23.42
2023-04-17T07:12:18.295Z,20.15
2023-04-17T07:14:44.645Z,19.38
2023-04-17T07:17:11.031Z,21.73
2023-04-17T07:19:37.581Z,20.67
2023-04-17T07:22:05.668Z,18.98
2023-04-17T07:24:34.882Z,22.83
2023-04-17T07:27:04.534Z,20.35
2023-04-17T07:29:30.910Z,20.63
2023-04-17T07:31:57.345Z,20.90
2023-04-17T07:34:25.190Z,20.67
2023-04-17T07:36:54.675Z,21.75
2023-04-17T07:39:21.298Z,22.80
2023-04-17T07:41:48.879Z,23.20
2023-04-17T07:44:15.291Z,22.75
2023-04-17T07:46:41.721Z,19.20
2023-04-17T07:49:11.479Z,19.88
2023-04-17T07:51:41.014Z,22.45
2023-04-17T07:54:07.611Z,19.30
2023-04-17T07:56:34.789Z,20.50
2023-04-17T07:59:01.277Z,19.55
2023-04-17T08:01:27.868Z,21.27
2023-04-17T08:03:55.469Z,20.67
2023-04-17T08:06:22.139Z,19.27
2023-04-17T08:08:48.649Z,19.08
2023-04-17T08:11:15.509Z,19.20
2023-04-17T08:13:42.199Z,18.58
2023-04-17T08:16:09.294Z,18.83
2023-04-17T08:18:37.603Z,19.67
2023-04-17T08:21:04.574Z,20.08
2023-04-17T08:23:31.249Z,19.90
2023-04-17T08:25:58.246Z,20.45
2023-04-17T08:28:24.994Z,19.70
2023-04-17T08:30:51.457Z,19.85
2023-04-17T08:33:18.367Z,19.08
2023-04-17T08:35:44.985Z,20.35
2023-04-17T08:38:14.038Z,24.17
2023-04-17T08:40:42.869Z,23.27
2023-04-17T08:43:15.078Z,20.90
2023-04-17T08:45:49.731Z,19.55
2023-04-17T08:48:16.238Z,18.90
2023-04-17T08:50:49.967Z,19.00
2023-04-17T08:53:20.507Z,20.48
2023-04-17T08:55:47.630Z,18.90
2023-04-17T08:58:14.999Z,17.40
2023-04-17T09:00:43.249Z,19.08
2023-04-17T09:03:12.286Z,18.23
2023-04-17T09:05:42.522Z,18.35
2023-04-17T09:08:10.074Z,17.60
2023-04-17T09:10:49.416Z,18.27
2023-04-17T09:13:17.474Z,18.58
2023-04-17T09:15:45.515Z,17.42
2023-04-17T09:18:25.926Z,16.67
2023-04-17T09:20:52.496Z,16.60
2023-04-17T09:23:19.868Z,16.42
2023-04-17T09:25:46.658Z,17.45
2023-04-17T09:28:14.654Z,16.88
2023-04-17T09:30:42.320Z,19.90
2023-04-17T09:33:10.293Z,16.83
2023-04-17T09:35:40.773Z,16.08
2023-04-17T09:38:07.415Z,15.60
2023-04-17T09:40:38.713Z,16.55
2023-04-17T09:43:07.488Z,16.50
2023-04-17T09:45:36.820Z,15.77
2023-04-17T09:48:10.519Z,16.48
2023-04-17T09:50:38.662Z,13.23
2023-04-17T09:53:07.007Z,16.10
2023-04-17T09:55:33.633Z,13.57
2023-04-17T09:58:04.835Z,13.45
2023-04-17T10:00:31.476Z,14.82
2023-04-17T10:02:59.149Z,14.90
2023-04-17T10:05:28.730Z,12.80
2023-04-17T10:07:55.556Z,13.90
2023-04-17T10:10:33.692Z,13.48
2023-04-17T10:13:02.370Z,11.23
2023-04-17T10:15:28.897Z,10.45
2023-04-17T10:17:58.350Z,8.77
2023-04-17T10:20:24.773Z,8.48
2023-04-17T10:22:56.081Z,8.98
2023-04-17T10:25:25.147Z,10.85
2023-04-17T10:27:56.278Z,10.60
2023-04-17T10:30:23.754Z,8.00
2023-04-17T10:33:19.905Z,9.32
2023-04-17T10:35:46.703Z,10.15
2023-04-17T10:38:13.211Z,9.90
2023-04-17T10:40:39.829Z,5.95
2023-04-17T10:43:23.275Z,8.23
2023-04-17T10:46:05.006Z,7.57
2023-04-17T10:48:41.567Z,8.55
2023-04-17T10:51:39.892Z,6.25
2023-04-17T10:54:10.063Z,6.82
2023-04-17T10:56:46.228Z,5.38
2023-04-17T10:59:17.003Z,8.57
2023-04-17T11:01:49.418Z,8.93
2023-04-17T11:04:20.731Z,9.48
2023-04-17T11:06:47.633Z,9.20
2023-04-17T11:09:14.770Z,8.35
2023-04-17T11:11:44.623Z,8.57
2023-04-17T11:14:16.376Z,8.95
2023-04-17T11:16:45.116Z,7.43
2023-04-17T11:19:17.372Z,8.10
2023-04-17T11:21:47.797Z,6.22
2023-04-17T11:24:14.173Z,7.63
2023-04-17T11:26:47.939Z,7.80
2023-04-17T11:29:18.412Z,6.75
2023-04-17T11:31:45.557Z,5.25
2023-04-17T11:34:12.774Z,4.18
2023-04-17T11:36:39.205Z,6.65
2023-04-17T11:39:05.774Z,6.40
2023-04-17T11:41:38.866Z,4.93
2023-04-17T11:44:08.975Z,4.22
2023-04-17T11:46:35.849Z,5.15
2023-04-17T11:49:05.508Z,4.25
2023-04-17T11:51:32.333Z,5.45
2023-04-17T11:53:59.327Z,5.03
2023-04-17T11:56:29.894Z,5.22
2023-04-17T11:58:57.616Z,4.45
2023-04-17T12:01:25.851Z,6.05
2023-04-17T12:03:56.766Z,4.65
2023-04-17T12:06:24.214Z,5.03
2023-04-17T12:08:55.656Z,4.88
2023-04-17T12:11:35.182Z,4.80
2023-04-17T12:14:03.535Z,4.45
2023-04-17T12:16:30.171Z,5.32
2023-04-17T12:18:57.286Z,6.32
2023-04-17T12:21:23.911Z,5.50
2023-04-17T12:23:50.662Z,4.13
2023-04-17T12:26:17.088Z,5.38
2023-04-17T12:28:43.489Z,4.65
2023-04-17T12:31:09.967Z,5.22
2023-04-17T12:33:36.495Z,5.80
2023-04-17T12:36:04.485Z,6.00
2023-04-17T12:38:31.396Z,6.28
2023-04-17T12:40:57.902Z,4.57
2023-04-17T12:43:24.284Z,5.25
2023-04-17T12:45:52.406Z,4.95
2023-04-17T12:48:18.769Z,4.72
2023-04-17T12:50:45.112Z,4.90
2023-04-17T12:53:13.521Z,5.80
2023-04-17T12:55:43.732Z,6.40
2023-04-17T12:58:11.512Z,5.72
2023-04-17T13:00:44.610Z,4.80
2023-04-17T13:03:11.703Z,4.50
2023-04-17T13:05:38.545Z,4.50
2023-04-17T13:08:05.964Z,4.57
2023-04-17T13:10:34.075Z,5.38
2023-04-17T13:13:02.171Z,5.05
2023-04-17T13:15:28.660Z,4.30
2023-04-17T13:17:55.131Z,5.38
2023-04-17T13:20:21.509Z,5.43
2023-04-17T13:22:48.987Z,7.47
2023-04-17T13:25:15.557Z,4.47
2023-04-17T13:27:41.963Z,5.18
2023-04-17T13:30:08.665Z,7.22
2023-04-17T13:32:35.210Z,6.95
2023-04-17T13:35:02.837Z,4.47
2023-04-17T13:37:29.303Z,6.05
2023-04-17T13:39:55.629Z,4.95
2023-04-17T13:42:22.026Z,5.30
2023-04-17T13:44:49.289Z,4.32
2023-04-17T13:47:15.718Z,6.13
2023-04-17T13:49:42.083Z,6.05
2023-04-17T13:52:08.505Z,3.70
2023-04-17T13:54:34.919Z,3.92
2023-04-17T13:57:01.352Z,5.00
2023-04-17T13:59:28.012Z,5.22
2023-04-17T14:01:54.542Z,5.40
2023-04-17T14:04:21.552Z,5.30
2023-04-17T14:06:50.234Z,5.13
2023-04-17T14:09:17.110Z,6.55
2023-04-17T14:11:43.579Z,7.30
2023-04-17T14:14:12.429Z,4.78
2023-04-17T14:16:41.868Z,5.20
2023-04-17T14:19:14.009Z,4.53
2023-04-17T14:21:41.124Z,4.10
2023-04-17T14:24:07.454Z,5.43
2023-04-17T14:26:33.897Z,4.60
2023-04-17T14:29:00.241Z,6.07
2023-04-17T14:31:26.582Z,4.70
2023-04-17T14:33:53.034Z,4.75
2023-04-17T14:36:19.461Z,4.55
2023-04-17T14:38:49.761Z,5.03
2023-04-17T14:41:16.221Z,5.97
2023-04-17T14:43:42.608Z,5.90
2023-04-17T14:46:09.098Z,6.32
2023-04-17T14:48:51.786Z,8.80
2023-04-17T14:51:22.311Z,6.65
2023-04-17T14:53:48.759Z,7.90
2023-04-17T14:56:15.883Z,5.28
2023-04-17T14:58:43.044Z,5.30
2023-04-17T15:01:09.467Z,4.65
2023-04-17T15:03:36.065Z,8.50
2023-04-17T15:06:03.384Z,5.65
2023-04-17T15:08:31.080Z,5.35
2023-04-17T15:10:58.035Z,4.85
2023-04-17T15:13:24.503Z,4.72
2023-04-17T15:15:50.861Z,6.30
2023-04-17T15:18:17.379Z,5.43
2023-04-17T15:20:43.746Z,7.93
2023-04-17T15:23:10.105Z,6.43
2023-04-17T15:25:36.631Z,6.30
2023-04-17T15:28:03.108Z,8.05
2023-04-17T15:30:29.576Z,4.70
2023-04-17T15:32:56.087Z,5.63
2023-04-17T15:35:22.573Z,5.35
2023-04-17T15:37:48.975Z,5.10
2023-04-17T15:40:16.227Z,5.68
2023-04-17T15:42:42.597Z,5.63
2023-04-17T15:45:09.727Z,5.75
2023-04-17T15:47:36.158Z,5.30
2023-04-17T15:50:02.595Z,5.95
2023-04-17T15:52:28.952Z,6.25
2023-04-17T15:54:55.361Z,5.20
2023-04-17T15:57:21.955Z,5.78
2023-04-17T15:59:48.663Z,7.13
2023-04-17T16:02:15.164Z,7.05
2023-04-17T16:04:43.544Z,7.18
2023-04-17T16:07:11.852Z,7.22
2023-04-17T16:09:39.667Z,5.45
2023-04-17T16:12:08.651Z,6.30
2023-04-17T16:14:36.298Z,7.28
2023-04-17T16:17:03.498Z,8.18
2023-04-17T16:19:30.570Z,6.25
2023-04-17T16:21:57.298Z,8.35
2023-04-17T16:24:24.759Z,7.78
2023-04-17T16:26:55.410Z,6.47
2023-04-17T16:29:22.190Z,5.00
2023-04-17T16:31:48.630Z,5.50
2023-04-17T16:34:15.325Z,7.10
2023-04-17T16:36:45.292Z,5.38
2023-04-17T16:39:14.271Z,6.20
2023-04-17T16:41:41.088Z,5.50
2023-04-17T16:44:07.478Z,7.05
2023-04-17T16:46:51.587Z,7.43
2023-04-17T16:49:20.344Z,6.03
2023-04-17T16:51:46.757Z,7.60
2023-04-17T16:54:13.535Z,4.70
2023-04-17T16:56:40.098Z,7.35
2023-04-17T16:59:06.424Z,7.13
2023-04-17T17:01:33.161Z,6.65
2023-04-17T17:03:59.654Z,7.15
2023-04-17T17:06:26.777Z,7.30
2023-04-17T17:08:55.008Z,6.95
2023-04-17T17:11:22.002Z,5.55
2023-04-17T17:13:51.250Z,5.80
2023-04-17T17:16:18.778Z,6.32
2023-04-17T17:18:47.062Z,8.55
2023-04-17T17:21:13.801Z,6.45
2023-04-17T17:23:40.516Z,6.10
2023-04-17T17:26:07.015Z,5.13
2023-04-17T17:28:34.995Z,6.88
2023-04-17T17:31:09.651Z,6.95
2023-04-17T17:33:36.918Z,6.63
2023-04-17T17:36:03.507Z,5.82
2023-04-17T17:38:32.407Z,6.82
2023-04-17T17:40:59.103Z,10.13
2023-04-17T17:43:25.672Z,6.45
2023-04-17T17:45:53.187Z,7.32
2023-04-17T17:48:20.437Z,6.00
2023-04-17T17:50:49.227Z,6.53
2023-04-17T17:53:17.536Z,6.82
2023-04-17T17:55:53.882Z,7.05
2023-04-17T17:58:21.593Z,5.97
2023-04-17T18:00:54.086Z,7.40
2023-04-17T18:03:20.894Z,8.82
2023-04-17T18:05:47.433Z,11.40
2023-04-17T18:08:14.406Z,6.80
2023-04-17T18:10:40.780Z,8.63
2023-04-17T18:13:07.330Z,10.93
2023-04-17T18:15:34.081Z,7.80
2023-04-17T18:18:00.640Z,6.53
2023-04-17T18:20:29.156Z,8.18
2023-04-17T18:22:55.672Z,6.93
2023-04-17T18:25:22.113Z,5.93
2023-04-17T18:27:48.449Z,7.45
2023-04-17T18:30:15.452Z,6.50
2023-04-17T18:32:41.825Z,5.82
2023-04-17T18:35:08.632Z,7.85
2023-04-17T18:37:34.949Z,8.77
2023-04-17T18:40:01.438Z,6.80
2023-04-17T18:42:27.793Z,7.80
2023-04-17T18:44:54.130Z,8.88
2023-04-17T18:47:20.558Z,6.90
2023-04-17T18:49:47.007Z,5.72
2023-04-17T18:52:13.391Z,8.38
2023-04-17T18:54:39.774Z,5.60
2023-04-17T18:57:06.172Z,8.88
2023-04-17T18:59:32.641Z,6.05
2023-04-17T19:01:59.023Z,6.18
2023-04-17T19:04:25.932Z,10.05
2023-04-17T19:06:52.266Z,7.55
2023-04-17T19:09:18.707Z,9.10
2023-04-17T19:11:45.646Z,7.10
2023-04-17T19:14:12.291Z,6.97
2023-04-17T19:16:38.860Z,7.32
2023-04-17T19:19:05.610Z,8.10
2023-04-17T19:21:32.679Z,6.32
2023-04-17T19:23:59.063Z,9.40
2023-04-17T19:26:25.433Z,9.60
2023-04-17T19:28:52.005Z,8.02
2023-04-17T19:31:18.459Z,6.63
2023-04-17T19:33:45.120Z,7.00
2023-04-17T19:36:11.590Z,7.88
2023-04-17T19:38:38.019Z,7.57
2023-04-17T19:41:17.248Z,9.63
2023-04-17T19:43:44.645Z,7.03
2023-04-17T19:46:13.197Z,8.50
2023-04-17T19:48:40.133Z,8.02
2023-04-17T19:51:06.795Z,10.30
2023-04-17T19:53:35.353Z,8.15
2023-04-17T19:56:02.256Z,6.78
2023-04-17T19:58:29.550Z,6.65
2023-04-17T20:00:57.311Z,7.18
2023-04-17T20:03:25.229Z,8.85
2023-04-17T20:05:51.774Z,9.40
2023-04-17T20:08:18.163Z,9.68
2023-04-17T20:10:44.530Z,9.15
2023-04-17T20:13:11.706Z,7.18
2023-04-17T20:15:38.893Z,8.90
2023-04-17T20:18:07.054Z,7.28
2023-04-17T20:20:36.147Z,10.52
2023-04-17T20:23:03.353Z,7.95
2023-04-17T20:25:29.715Z,7.55
2023-04-17T20:27:56.360Z,9.60
2023-04-17T20:30:23.660Z,9.68
2023-04-17T20:32:50.296Z,10.63
2023-04-17T20:35:17.696Z,11.30
2023-04-17T20:37:44.787Z,8.30
2023-04-17T20:40:13.801Z,17.23
2023-04-17T20:42:41.422Z,9.68
2023-04-17T20:45:09.023Z,7.93
2023-04-17T20:47:37.404Z,7.32
2023-04-17T20:50:07.256Z,6.82
2023-04-17T20:52:34.013Z,9.77
2023-04-17T20:55:00.945Z,8.27
2023-04-17T20:57:28.337Z,9.38
2023-04-17T20:59:54.657Z,8.10
2023-04-17T21:02:21.889Z,11.70
2023-04-17T21:04:48.959Z,7.85
2023-04-17T21:07:15.518Z,6.32
2023-04-17T21:09:41.935Z,6.15
2023-04-17T21:12:08.367Z,8.32
2023-04-17T21:14:37.909Z,9.07
2023-04-17T21:17:04.349Z,8.90
2023-04-17T21:19:32.178Z,11.35
2023-04-17T21:21:58.566Z,6.72
2023-04-17T21:24:25.171Z,8.30
2023-04-17T21:26:53.143Z,6.13
2023-04-17T21:29:19.457Z,9.30
2023-04-17T21:31:45.869Z,9.68
2023-04-17T21:34:12.504Z,7.50
2023-04-17T21:36:39.137Z,7.35
2023-04-17T21:39:06.569Z,7.85
2023-04-17T21:41:32.962Z,9.07
2023-04-17T21:44:02.638Z,7.57
2023-04-17T21:46:29.754Z,9.70
2023-04-17T21:48:56.184Z,8.43
2023-04-17T21:51:23.027Z,7.05
2023-04-17T21:53:49.577Z,11.05
2023-04-17T21:56:15.952Z,10.65
2023-04-17T21:58:42.392Z,8.30
2023-04-17T22:01:08.777Z,10.80
2023-04-17T22:03:35.226Z,9.27
2023-04-17T22:06:01.671Z,7.85
2023-04-17T22:08:28.044Z,10.25
2023-04-17T22:10:54.426Z,7.35
2023-04-17T22:13:20.790Z,6.30
2023-04-17T22:15:48.458Z,8.50
2023-04-17T22:18:14.928Z,10.43
2023-04-17T22:20:41.321Z,9.82
2023-04-17T22:23:07.680Z,8.75
2023-04-17T22:25:34.045Z,8.50
2023-04-17T22:28:00.391Z,9.63
2023-04-17T22:30:26.802Z,11.05
2023-04-17T22:32:53.260Z,8.45
2023-04-17T22:35:19.662Z,8.43
2023-04-17T22:37:46.060Z,8.27
2023-04-17T22:40:12.841Z,10.52
2023-04-17T22:42:39.217Z,8.23
2023-04-17T22:45:05.990Z,7.15
2023-04-17T22:47:32.409Z,8.75
2023-04-17T22:49:59.142Z,10.10
2023-04-17T22:52:25.617Z,10.25
2023-04-17T22:54:52.009Z,6.85
2023-04-17T22:57:18.330Z,9.30
2023-04-17T22:59:44.710Z,8.90
2023-04-17T23:02:11.311Z,12.20
2023-04-17T23:04:37.828Z,8.00
2023-04-17T23:07:04.262Z,9.07
2023-04-17T23:09:30.638Z,7.30
2023-04-17T23:11:57.483Z,11.25
2023-04-17T23:14:23.818Z,7.75
2023-04-17T23:16:52.445Z,7.55
2023-04-17T23:19:21.010Z,8.40
2023-04-17T23:21:47.389Z,8.77
2023-04-17T23:24:14.051Z,10.45
2023-04-17T23:26:40.721Z,11.73
2023-04-17T23:29:07.030Z,10.60
2023-04-17T23:31:33.583Z,9.50
2023-04-17T23:34:00.213Z,11.27
2023-04-17T23:36:26.753Z,9.50
2023-04-17T23:38:53.717Z,8.35
2023-04-17T23:41:22.244Z,9.80
2023-04-17T23:43:48.754Z,8.80
2023-04-17T23:46:15.314Z,9.00
2023-04-17T23:48:41.749Z,12.57
2023-04-17T23:51:08.878Z,7.97
2023-04-17T23:53:35.228Z,9.02
2023-04-17T23:56:01.938Z,12.57
2023-04-17T23:58:28.265Z,11.48
